sensor_id;sensor_type;location;lat;lon;timestamp;P1;durP1;ratioP1;P2;durP2;ratioP2
36443;SDS011;24692;45.642;13.806;2023-06-26T00:00:20;13.13;;;7.97;;
36443;SDS011;24692;45.642;13.806;2023-06-26T00:02:45;11.18;;;7.85;;
36443;SDS011;24692;45.642;13.806;2023-06-26T00:05:11;8.27;;;7.35;;
36443;SDS011;24692;45.642;13.806;2023-06-26T00:07:37;8.88;;;7.75;;
36443;SDS011;24692;45.642;13.806;2023-06-26T00:10:03;12.65;;;8.52;;
36443;SDS011;24692;45.642;13.806;2023-06-26T00:12:29;8.30;;;7.30;;
36443;SDS011;24692;45.642;13.806;2023-06-26T00:14:55;13.73;;;8.32;;
36443;SDS011;24692;45.642;13.806;2023-06-26T00:17:21;10.13;;;7.80;;
36443;SDS011;24692;45.642;13.806;2023-06-26T00:19:47;11.25;;;7.75;;
36443;SDS011;24692;45.642;13.806;2023-06-26T00:22:14;8.68;;;7.78;;
36443;SDS011;24692;45.642;13.806;2023-06-26T00:24:39;10.05;;;7.75;;
36443;SDS011;24692;45.642;13.806;2023-06-26T00:27:05;9.70;;;8.35;;
36443;SDS011;24692;45.642;13.806;2023-06-26T00:29:31;9.13;;;7.88;;
36443;SDS011;24692;45.642;13.806;2023-06-26T00:31:56;10.38;;;8.30;;
36443;SDS011;24692;45.642;13.806;2023-06-26T00:34:22;12.27;;;8.10;;
36443;SDS011;24692;45.642;13.806;2023-06-26T00:36:48;12.32;;;8.35;;
36443;SDS011;24692;45.642;13.806;2023-06-26T00:39:13;9.30;;;7.90;;
36443;SDS011;24692;45.642;13.806;2023-06-26T00:41:39;8.60;;;7.70;;
36443;SDS011;24692;45.642;13.806;2023-06-26T00:44:05;10.10;;;7.80;;
36443;SDS011;24692;45.642;13.806;2023-06-26T00:46:31;9.02;;;7.78;;
36443;SDS011;24692;45.642;13.806;2023-06-26T00:49:00;9.45;;;7.80;;
36443;SDS011;24692;45.642;13.806;2023-06-26T00:51:28;9.63;;;8.13;;
36443;SDS011;24692;45.642;13.806;2023-06-26T00:53:55;9.32;;;7.72;;
36443;SDS011;24692;45.642;13.806;2023-06-26T00:56:22;10.27;;;7.80;;
36443;SDS011;24692;45.642;13.806;2023-06-26T00:58:48;8.75;;;7.32;;
36443;SDS011;24692;45.642;13.806;2023-06-26T01:01:14;9.27;;;7.50;;
36443;SDS011;24692;45.642;13.806;2023-06-26T01:03:48;10.35;;;8.00;;
36443;SDS011;24692;45.642;13.806;2023-06-26T01:06:18;9.77;;;7.47;;
36443;SDS011;24692;45.642;13.806;2023-06-26T01:08:49;9.10;;;7.47;;
36443;SDS011;24692;45.642;13.806;2023-06-26T01:11:16;9.57;;;7.68;;
36443;SDS011;24692;45.642;13.806;2023-06-26T01:13:42;8.75;;;7.75;;
36443;SDS011;24692;45.642;13.806;2023-06-26T01:16:09;12.77;;;7.90;;
36443;SDS011;24692;45.642;13.806;2023-06-26T01:18:35;11.80;;;8.18;;
36443;SDS011;24692;45.642;13.806;2023-06-26T01:21:06;9.13;;;8.13;;
36443;SDS011;24692;45.642;13.806;2023-06-26T01:26:22;9.27;;;8.00;;
36443;SDS011;24692;45.642;13.806;2023-06-26T01:28:51;8.90;;;8.00;;
36443;SDS011;24692;45.642;13.806;2023-06-26T01:31:18;10.15;;;8.00;;
36443;SDS011;24692;45.642;13.806;2023-06-26T01:33:44;10.18;;;8.13;;
36443;SDS011;24692;45.642;13.806;2023-06-26T01:36:11;10.55;;;7.45;;
36443;SDS011;24692;45.642;13.806;2023-06-26T01:38:37;9.20;;;8.07;;
36443;SDS011;24692;45.642;13.806;2023-06-26T01:41:06;8.73;;;7.50;;
36443;SDS011;24692;45.642;13.806;2023-06-26T01:51:53;10.10;;;7.68;;
36443;SDS011;24692;45.642;13.806;2023-06-26T01:54:24;9.35;;;8.15;;
36443;SDS011;24692;45.642;13.806;2023-06-26T01:56:55;9.35;;;7.85;;
36443;SDS011;24692;45.642;13.806;2023-06-26T01:59:23;10.70;;;7.97;;
36443;SDS011;24692;45.642;13.806;2023-06-26T02:01:52;9.20;;;7.35;;
36443;SDS011;24692;45.642;13.806;2023-06-26T02:04:17;9.40;;;8.15;;
36443;SDS011;24692;45.642;13.806;2023-06-26T02:06:43;9.15;;;7.82;;
36443;SDS011;24692;45.642;13.806;2023-06-26T02:09:09;11.63;;;7.63;;
36443;SDS011;24692;45.642;13.806;2023-06-26T02:11:34;8.75;;;7.55;;
36443;SDS011;24692;45.642;13.806;2023-06-26T02:14:00;10.00;;;7.57;;
36443;SDS011;24692;45.642;13.806;2023-06-26T02:16:26;10.32;;;8.00;;
36443;SDS011;24692;45.642;13.806;2023-06-26T02:18:51;9.07;;;7.70;;
36443;SDS011;24692;45.642;13.806;2023-06-26T02:21:17;8.05;;;7.22;;
36443;SDS011;24692;45.642;13.806;2023-06-26T02:23:42;10.90;;;7.60;;
36443;SDS011;24692;45.642;13.806;2023-06-26T02:26:08;9.68;;;7.82;;
36443;SDS011;24692;45.642;13.806;2023-06-26T02:28:34;10.70;;;7.85;;
36443;SDS011;24692;45.642;13.806;2023-06-26T02:30:59;8.27;;;7.32;;
36443;SDS011;24692;45.642;13.806;2023-06-26T02:33:25;10.90;;;7.32;;
36443;SDS011;24692;45.642;13.806;2023-06-26T02:35:51;11.50;;;7.40;;
36443;SDS011;24692;45.642;13.806;2023-06-26T02:38:17;10.90;;;7.95;;
36443;SDS011;24692;45.642;13.806;2023-06-26T02:40:43;9.80;;;7.95;;
36443;SDS011;24692;45.642;13.806;2023-06-26T02:43:09;10.65;;;7.57;;
36443;SDS011;24692;45.642;13.806;2023-06-26T02:45:34;11.85;;;8.52;;
36443;SDS011;24692;45.642;13.806;2023-06-26T02:48:00;11.70;;;8.02;;
36443;SDS011;24692;45.642;13.806;2023-06-26T02:50:26;8.88;;;7.72;;
36443;SDS011;24692;45.642;13.806;2023-06-26T02:52:51;9.63;;;7.65;;
36443;SDS011;24692;45.642;13.806;2023-06-26T02:55:18;13.30;;;8.27;;
36443;SDS011;24692;45.642;13.806;2023-06-26T02:57:45;8.77;;;7.80;;
36443;SDS011;24692;45.642;13.806;2023-06-26T03:00:10;12.32;;;8.05;;
36443;SDS011;24692;45.642;13.806;2023-06-26T03:02:37;8.52;;;7.63;;
36443;SDS011;24692;45.642;13.806;2023-06-26T03:05:02;11.38;;;8.18;;
36443;SDS011;24692;45.642;13.806;2023-06-26T03:07:29;9.63;;;8.00;;
36443;SDS011;24692;45.642;13.806;2023-06-26T03:09:55;11.63;;;7.80;;
36443;SDS011;24692;45.642;13.806;2023-06-26T03:12:20;9.52;;;7.40;;
36443;SDS011;24692;45.642;13.806;2023-06-26T03:14:46;10.75;;;7.90;;
36443;SDS011;24692;45.642;13.806;2023-06-26T03:17:12;9.82;;;7.97;;
36443;SDS011;24692;45.642;13.806;2023-06-26T03:19:37;9.38;;;7.72;;
36443;SDS011;24692;45.642;13.806;2023-06-26T03:22:03;9.02;;;7.88;;
36443;SDS011;24692;45.642;13.806;2023-06-26T03:24:29;10.23;;;7.80;;
36443;SDS011;24692;45.642;13.806;2023-06-26T03:26:54;11.52;;;7.63;;
36443;SDS011;24692;45.642;13.806;2023-06-26T03:29:20;8.85;;;7.40;;
36443;SDS011;24692;45.642;13.806;2023-06-26T03:31:46;8.75;;;7.22;;
36443;SDS011;24692;45.642;13.806;2023-06-26T03:34:13;8.35;;;7.38;;
36443;SDS011;24692;45.642;13.806;2023-06-26T03:36:38;9.38;;;7.93;;
36443;SDS011;24692;45.642;13.806;2023-06-26T03:39:04;9.80;;;7.75;;
36443;SDS011;24692;45.642;13.806;2023-06-26T03:41:30;9.75;;;7.47;;
36443;SDS011;24692;45.642;13.806;2023-06-26T03:43:55;10.07;;;7.30;;
36443;SDS011;24692;45.642;13.806;2023-06-26T03:46:21;10.68;;;7.93;;
36443;SDS011;24692;45.642;13.806;2023-06-26T03:48:47;8.23;;;7.20;;
36443;SDS011;24692;45.642;13.806;2023-06-26T03:51:13;9.05;;;7.72;;
36443;SDS011;24692;45.642;13.806;2023-06-26T03:53:39;11.07;;;7.50;;
36443;SDS011;24692;45.642;13.806;2023-06-26T03:56:04;9.30;;;7.53;;
36443;SDS011;24692;45.642;13.806;2023-06-26T03:58:30;8.77;;;7.88;;
36443;SDS011;24692;45.642;13.806;2023-06-26T04:00:56;9.50;;;6.72;;
36443;SDS011;24692;45.642;13.806;2023-06-26T04:03:23;10.27;;;7.50;;
36443;SDS011;24692;45.642;13.806;2023-06-26T04:05:49;8.40;;;7.20;;
36443;SDS011;24692;45.642;13.806;2023-06-26T04:08:15;9.63;;;7.70;;
36443;SDS011;24692;45.642;13.806;2023-06-26T04:10:40;8.38;;;7.50;;
36443;SDS011;24692;45.642;13.806;2023-06-26T04:13:06;9.25;;;7.50;;
36443;SDS011;24692;45.642;13.806;2023-06-26T04:15:32;9.02;;;7.65;;
36443;SDS011;24692;45.642;13.806;2023-06-26T04:17:57;10.82;;;7.57;;
36443;SDS011;24692;45.642;13.806;2023-06-26T04:20:23;9.63;;;7.88;;
36443;SDS011;24692;45.642;13.806;2023-06-26T04:22:49;8.65;;;7.53;;
36443;SDS011;24692;45.642;13.806;2023-06-26T04:25:14;10.05;;;7.38;;
36443;SDS011;24692;45.642;13.806;2023-06-26T04:27:40;9.55;;;7.80;;
36443;SDS011;24692;45.642;13.806;2023-06-26T04:30:06;9.80;;;7.28;;
36443;SDS011;24692;45.642;13.806;2023-06-26T04:32:32;10.98;;;7.63;;
36443;SDS011;24692;45.642;13.806;2023-06-26T04:34:58;9.02;;;7.55;;
36443;SDS011;24692;45.642;13.806;2023-06-26T04:37:24;9.75;;;7.25;;
36443;SDS011;24692;45.642;13.806;2023-06-26T04:39:50;8.85;;;7.80;;
36443;SDS011;24692;45.642;13.806;2023-06-26T04:42:16;9.10;;;7.90;;
36443;SDS011;24692;45.642;13.806;2023-06-26T04:44:42;9.13;;;7.68;;
36443;SDS011;24692;45.642;13.806;2023-06-26T04:47:08;9.07;;;7.63;;
36443;SDS011;24692;45.642;13.806;2023-06-26T04:49:34;9.20;;;7.90;;
36443;SDS011;24692;45.642;13.806;2023-06-26T04:51:59;10.88;;;8.13;;
36443;SDS011;24692;45.642;13.806;2023-06-26T04:54:25;9.52;;;8.02;;
36443;SDS011;24692;45.642;13.806;2023-06-26T04:56:52;12.02;;;8.38;;
36443;SDS011;24692;45.642;13.806;2023-06-26T04:59:18;9.48;;;8.15;;
36443;SDS011;24692;45.642;13.806;2023-06-26T05:01:44;10.90;;;8.02;;
36443;SDS011;24692;45.642;13.806;2023-06-26T05:04:12;9.75;;;8.27;;
36443;SDS011;24692;45.642;13.806;2023-06-26T05:06:39;8.82;;;7.93;;
36443;SDS011;24692;45.642;13.806;2023-06-26T05:09:04;11.85;;;7.82;;
36443;SDS011;24692;45.642;13.806;2023-06-26T05:11:30;12.73;;;7.53;;
36443;SDS011;24692;45.642;13.806;2023-06-26T05:13:56;10.15;;;7.88;;
36443;SDS011;24692;45.642;13.806;2023-06-26T05:16:21;11.75;;;8.18;;
36443;SDS011;24692;45.642;13.806;2023-06-26T05:18:47;9.77;;;8.25;;
36443;SDS011;24692;45.642;13.806;2023-06-26T05:21:13;9.80;;;8.10;;
36443;SDS011;24692;45.642;13.806;2023-06-26T05:23:38;9.95;;;8.35;;
36443;SDS011;24692;45.642;13.806;2023-06-26T05:26:04;7.80;;;7.00;;
36443;SDS011;24692;45.642;13.806;2023-06-26T05:28:30;10.30;;;8.50;;
36443;SDS011;24692;45.642;13.806;2023-06-26T05:30:57;9.80;;;8.18;;
36443;SDS011;24692;45.642;13.806;2023-06-26T05:33:24;9.00;;;7.97;;
36443;SDS011;24692;45.642;13.806;2023-06-26T05:35:54;8.93;;;8.00;;
36443;SDS011;24692;45.642;13.806;2023-06-26T05:38:20;10.57;;;8.30;;
36443;SDS011;24692;45.642;13.806;2023-06-26T05:40:46;8.20;;;7.40;;
36443;SDS011;24692;45.642;13.806;2023-06-26T05:43:13;9.68;;;7.72;;
36443;SDS011;24692;45.642;13.806;2023-06-26T05:45:39;11.93;;;7.80;;
36443;SDS011;24692;45.642;13.806;2023-06-26T05:48:05;10.73;;;8.15;;
36443;SDS011;24692;45.642;13.806;2023-06-26T05:50:31;9.15;;;7.93;;
36443;SDS011;24692;45.642;13.806;2023-06-26T05:52:57;9.80;;;7.55;;
36443;SDS011;24692;45.642;13.806;2023-06-26T05:55:23;10.23;;;8.48;;
36443;SDS011;24692;45.642;13.806;2023-06-26T05:57:49;8.63;;;7.65;;
36443;SDS011;24692;45.642;13.806;2023-06-26T06:00:16;9.63;;;7.85;;
36443;SDS011;24692;45.642;13.806;2023-06-26T06:02:42;11.32;;;8.23;;
36443;SDS011;24692;45.642;13.806;2023-06-26T06:05:08;10.95;;;8.57;;
36443;SDS011;24692;45.642;13.806;2023-06-26T06:07:34;10.95;;;7.93;;
36443;SDS011;24692;45.642;13.806;2023-06-26T06:10:01;9.57;;;8.40;;
36443;SDS011;24692;45.642;13.806;2023-06-26T06:12:27;10.93;;;7.63;;
36443;SDS011;24692;45.642;13.806;2023-06-26T06:14:55;10.07;;;8.07;;
36443;SDS011;24692;45.642;13.806;2023-06-26T06:17:21;8.88;;;7.47;;
36443;SDS011;24692;45.642;13.806;2023-06-26T06:19:47;9.93;;;7.72;;
36443;SDS011;24692;45.642;13.806;2023-06-26T06:22:13;9.30;;;8.30;;
36443;SDS011;24692;45.642;13.806;2023-06-26T06:24:38;10.95;;;8.45;;
36443;SDS011;24692;45.642;13.806;2023-06-26T06:27:04;11.05;;;8.15;;
36443;SDS011;24692;45.642;13.806;2023-06-26T06:29:30;9.05;;;7.82;;
36443;SDS011;24692;45.642;13.806;2023-06-26T06:31:56;9.73;;;7.78;;
36443;SDS011;24692;45.642;13.806;2023-06-26T06:34:22;10.00;;;7.97;;
36443;SDS011;24692;45.642;13.806;2023-06-26T06:36:48;10.73;;;8.20;;
36443;SDS011;24692;45.642;13.806;2023-06-26T06:39:14;10.02;;;8.32;;
36443;SDS011;24692;45.642;13.806;2023-06-26T06:41:40;11.10;;;7.82;;
36443;SDS011;24692;45.642;13.806;2023-06-26T06:44:06;10.88;;;8.30;;
36443;SDS011;24692;45.642;13.806;2023-06-26T06:46:32;13.65;;;8.10;;
36443;SDS011;24692;45.642;13.806;2023-06-26T06:48:58;9.23;;;7.45;;
36443;SDS011;24692;45.642;13.806;2023-06-26T06:51:25;11.15;;;8.00;;
36443;SDS011;24692;45.642;13.806;2023-06-26T06:53:51;13.40;;;8.27;;
36443;SDS011;24692;45.642;13.806;2023-06-26T06:56:16;11.35;;;8.27;;
36443;SDS011;24692;45.642;13.806;2023-06-26T06:58:42;11.43;;;8.10;;
36443;SDS011;24692;45.642;13.806;2023-06-26T07:01:10;12.45;;;8.13;;
36443;SDS011;24692;45.642;13.806;2023-06-26T07:03:36;10.40;;;7.45;;
36443;SDS011;24692;45.642;13.806;2023-06-26T07:06:02;10.02;;;8.05;;
36443;SDS011;24692;45.642;13.806;2023-06-26T07:08:28;11.70;;;7.88;;
36443;SDS011;24692;45.642;13.806;2023-06-26T07:10:54;9.13;;;8.07;;
36443;SDS011;24692;45.642;13.806;2023-06-26T07:13:21;15.57;;;8.25;;
36443;SDS011;24692;45.642;13.806;2023-06-26T07:15:47;11.40;;;8.00;;
36443;SDS011;24692;45.642;13.806;2023-06-26T07:18:13;9.07;;;7.70;;
36443;SDS011;24692;45.642;13.806;2023-06-26T07:20:39;14.70;;;8.55;;
36443;SDS011;24692;45.642;13.806;2023-06-26T07:23:06;15.60;;;9.05;;
36443;SDS011;24692;45.642;13.806;2023-06-26T07:25:32;11.90;;;8.13;;
36443;SDS011;24692;45.642;13.806;2023-06-26T07:27:58;11.07;;;8.38;;
36443;SDS011;24692;45.642;13.806;2023-06-26T07:30:24;11.23;;;8.63;;
36443;SDS011;24692;45.642;13.806;2023-06-26T07:32:49;11.23;;;9.05;;
36443;SDS011;24692;45.642;13.806;2023-06-26T07:35:15;29.25;;;9.95;;
36443;SDS011;24692;45.642;13.806;2023-06-26T07:37:41;15.20;;;9.18;;
36443;SDS011;24692;45.642;13.806;2023-06-26T07:40:07;10.98;;;8.48;;
36443;SDS011;24692;45.642;13.806;2023-06-26T07:42:33;11.18;;;8.82;;
36443;SDS011;24692;45.642;13.806;2023-06-26T07:44:59;12.50;;;9.02;;
36443;SDS011;24692;45.642;13.806;2023-06-26T07:47:25;14.40;;;9.15;;
36443;SDS011;24692;45.642;13.806;2023-06-26T07:49:51;21.02;;;9.30;;
36443;SDS011;24692;45.642;13.806;2023-06-26T07:52:17;14.02;;;8.77;;
36443;SDS011;24692;45.642;13.806;2023-06-26T07:54:44;10.50;;;8.77;;
36443;SDS011;24692;45.642;13.806;2023-06-26T07:57:10;13.63;;;9.85;;
36443;SDS011;24692;45.642;13.806;2023-06-26T07:59:37;12.32;;;8.75;;
36443;SDS011;24692;45.642;13.806;2023-06-26T08:02:04;10.57;;;9.18;;
36443;SDS011;24692;45.642;13.806;2023-06-26T08:04:30;13.20;;;9.18;;
36443;SDS011;24692;45.642;13.806;2023-06-26T08:06:57;13.98;;;9.50;;
36443;SDS011;24692;45.642;13.806;2023-06-26T08:09:25;13.20;;;8.98;;
36443;SDS011;24692;45.642;13.806;2023-06-26T08:11:52;12.05;;;9.07;;
36443;SDS011;24692;45.642;13.806;2023-06-26T08:14:19;10.93;;;8.98;;
36443;SDS011;24692;45.642;13.806;2023-06-26T08:16:45;10.13;;;9.02;;
36443;SDS011;24692;45.642;13.806;2023-06-26T08:19:14;11.68;;;9.32;;
36443;SDS011;24692;45.642;13.806;2023-06-26T08:21:41;13.52;;;9.35;;
36443;SDS011;24692;45.642;13.806;2023-06-26T08:24:09;12.43;;;8.90;;
36443;SDS011;24692;45.642;13.806;2023-06-26T08:26:36;12.07;;;8.95;;
36443;SDS011;24692;45.642;13.806;2023-06-26T08:29:02;19.75;;;9.10;;
36443;SDS011;24692;45.642;13.806;2023-06-26T08:31:33;16.80;;;9.02;;
36443;SDS011;24692;45.642;13.806;2023-06-26T08:34:02;10.98;;;8.43;;
36443;SDS011;24692;45.642;13.806;2023-06-26T08:36:28;12.63;;;8.70;;
36443;SDS011;24692;45.642;13.806;2023-06-26T08:38:54;17.77;;;9.40;;
36443;SDS011;24692;45.642;13.806;2023-06-26T08:41:20;16.77;;;9.15;;
36443;SDS011;24692;45.642;13.806;2023-06-26T08:43:45;12.80;;;9.20;;
36443;SDS011;24692;45.642;13.806;2023-06-26T08:46:11;13.02;;;8.77;;
36443;SDS011;24692;45.642;13.806;2023-06-26T08:48:37;10.20;;;8.52;;
36443;SDS011;24692;45.642;13.806;2023-06-26T08:51:11;13.23;;;8.55;;
36443;SDS011;24692;45.642;13.806;2023-06-26T08:53:40;11.48;;;8.68;;
36443;SDS011;24692;45.642;13.806;2023-06-26T08:56:12;41.78;;;10.10;;
36443;SDS011;24692;45.642;13.806;2023-06-26T08:58:42;19.98;;;9.15;;
36443;SDS011;24692;45.642;13.806;2023-06-26T09:01:08;11.52;;;8.20;;
36443;SDS011;24692;45.642;13.806;2023-06-26T09:03:35;21.67;;;9.95;;
36443;SDS011;24692;45.642;13.806;2023-06-26T09:06:01;12.27;;;8.57;;
36443;SDS011;24692;45.642;13.806;2023-06-26T09:08:27;17.80;;;8.57;;
36443;SDS011;24692;45.642;13.806;2023-06-26T09:10:53;9.60;;;8.60;;
36443;SDS011;24692;45.642;13.806;2023-06-26T09:13:19;11.32;;;8.98;;
36443;SDS011;24692;45.642;13.806;2023-06-26T09:15:45;10.32;;;9.23;;
36443;SDS011;24692;45.642;13.806;2023-06-26T09:18:11;10.45;;;9.30;;
36443;SDS011;24692;45.642;13.806;2023-06-26T09:20:37;10.07;;;8.45;;
36443;SDS011;24692;45.642;13.806;2023-06-26T09:23:03;11.20;;;8.93;;
36443;SDS011;24692;45.642;13.806;2023-06-26T09:25:29;11.43;;;8.98;;
36443;SDS011;24692;45.642;13.806;2023-06-26T09:27:55;11.13;;;9.07;;
36443;SDS011;24692;45.642;13.806;2023-06-26T09:30:21;11.13;;;9.30;;
36443;SDS011;24692;45.642;13.806;2023-06-26T09:32:47;12.23;;;9.25;;
36443;SDS011;24692;45.642;13.806;2023-06-26T09:35:15;9.68;;;8.60;;
36443;SDS011;24692;45.642;13.806;2023-06-26T09:37:41;9.70;;;8.70;;
36443;SDS011;24692;45.642;13.806;2023-06-26T09:40:08;10.85;;;8.95;;
36443;SDS011;24692;45.642;13.806;2023-06-26T09:42:34;14.30;;;8.75;;
36443;SDS011;24692;45.642;13.806;2023-06-26T09:45:01;12.90;;;8.93;;
36443;SDS011;24692;45.642;13.806;2023-06-26T09:47:29;10.70;;;8.48;;
36443;SDS011;24692;45.642;13.806;2023-06-26T09:49:57;11.05;;;8.70;;
36443;SDS011;24692;45.642;13.806;2023-06-26T09:52:25;12.25;;;8.73;;
36443;SDS011;24692;45.642;13.806;2023-06-26T09:55:07;11.38;;;8.50;;
36443;SDS011;24692;45.642;13.806;2023-06-26T09:57:34;8.40;;;7.53;;
36443;SDS011;24692;45.642;13.806;2023-06-26T10:00:04;12.68;;;8.07;;
36443;SDS011;24692;45.642;13.806;2023-06-26T10:02:30;9.20;;;7.97;;
36443;SDS011;24692;45.642;13.806;2023-06-26T10:04:56;12.00;;;7.90;;
36443;SDS011;24692;45.642;13.806;2023-06-26T10:07:22;9.40;;;8.40;;
36443;SDS011;24692;45.642;13.806;2023-06-26T10:09:48;9.65;;;7.95;;
36443;SDS011;24692;45.642;13.806;2023-06-26T10:12:20;8.48;;;7.68;;
36443;SDS011;24692;45.642;13.806;2023-06-26T10:14:53;9.95;;;8.25;;
36443;SDS011;24692;45.642;13.806;2023-06-26T10:17:22;10.55;;;8.20;;
36443;SDS011;24692;45.642;13.806;2023-06-26T10:19:52;8.82;;;7.85;;
36443;SDS011;24692;45.642;13.806;2023-06-26T10:22:20;9.60;;;7.88;;
36443;SDS011;24692;45.642;13.806;2023-06-26T10:24:49;10.82;;;7.90;;
36443;SDS011;24692;45.642;13.806;2023-06-26T10:27:18;8.18;;;7.35;;
36443;SDS011;24692;45.642;13.806;2023-06-26T10:29:49;9.00;;;8.10;;
36443;SDS011;24692;45.642;13.806;2023-06-26T10:32:18;8.60;;;7.22;;
36443;SDS011;24692;45.642;13.806;2023-06-26T10:34:46;8.50;;;7.63;;
36443;SDS011;24692;45.642;13.806;2023-06-26T10:37:12;8.50;;;7.70;;
36443;SDS011;24692;45.642;13.806;2023-06-26T10:39:48;7.88;;;7.07;;
36443;SDS011;24692;45.642;13.806;2023-06-26T10:42:15;7.93;;;7.15;;
36443;SDS011;24692;45.642;13.806;2023-06-26T10:44:42;9.60;;;7.70;;
36443;SDS011;24692;45.642;13.806;2023-06-26T10:47:10;8.00;;;7.20;;
36443;SDS011;24692;45.642;13.806;2023-06-26T10:49:37;8.98;;;7.82;;
36443;SDS011;24692;45.642;13.806;2023-06-26T10:52:07;10.15;;;7.95;;
36443;SDS011;24692;45.642;13.806;2023-06-26T10:54:33;8.95;;;7.95;;
36443;SDS011;24692;45.642;13.806;2023-06-26T10:56:59;8.52;;;7.57;;
36443;SDS011;24692;45.642;13.806;2023-06-26T10:59:27;8.38;;;7.57;;
36443;SDS011;24692;45.642;13.806;2023-06-26T11:04:35;8.85;;;7.65;;
36443;SDS011;24692;45.642;13.806;2023-06-26T11:07:22;10.40;;;7.43;;
36443;SDS011;24692;45.642;13.806;2023-06-26T11:12:38;10.15;;;8.30;;
36443;SDS011;24692;45.642;13.806;2023-06-26T11:15:10;9.30;;;7.72;;
36443;SDS011;24692;45.642;13.806;2023-06-26T11:17:38;9.27;;;8.13;;
36443;SDS011;24692;45.642;13.806;2023-06-26T11:20:05;8.63;;;7.75;;
36443;SDS011;24692;45.642;13.806;2023-06-26T11:22:36;8.35;;;7.57;;
36443;SDS011;24692;45.642;13.806;2023-06-26T11:25:03;10.07;;;7.53;;
36443;SDS011;24692;45.642;13.806;2023-06-26T11:27:53;8.93;;;7.85;;
36443;SDS011;24692;45.642;13.806;2023-06-26T11:30:24;13.57;;;8.35;;
36443;SDS011;24692;45.642;13.806;2023-06-26T11:32:51;9.18;;;8.20;;
36443;SDS011;24692;45.642;13.806;2023-06-26T11:35:23;8.82;;;7.82;;
36443;SDS011;24692;45.642;13.806;2023-06-26T11:37:58;8.80;;;7.90;;
36443;SDS011;24692;45.642;13.806;2023-06-26T11:40:29;9.75;;;8.18;;
36443;SDS011;24692;45.642;13.806;2023-06-26T11:43:00;8.90;;;7.88;;
36443;SDS011;24692;45.642;13.806;2023-06-26T11:45:30;8.48;;;7.25;;
36443;SDS011;24692;45.642;13.806;2023-06-26T11:47:57;9.27;;;7.88;;
36443;SDS011;24692;45.642;13.806;2023-06-26T11:50:24;9.68;;;7.45;;
36443;SDS011;24692;45.642;13.806;2023-06-26T11:52:53;8.95;;;7.57;;
36443;SDS011;24692;45.642;13.806;2023-06-26T11:55:21;11.15;;;7.53;;
36443;SDS011;24692;45.642;13.806;2023-06-26T11:57:50;8.88;;;7.20;;
36443;SDS011;24692;45.642;13.806;2023-06-26T12:00:18;10.52;;;7.80;;
36443;SDS011;24692;45.642;13.806;2023-06-26T12:02:45;9.80;;;7.65;;
36443;SDS011;24692;45.642;13.806;2023-06-26T12:05:12;10.52;;;7.88;;
36443;SDS011;24692;45.642;13.806;2023-06-26T12:07:39;9.25;;;7.25;;
36443;SDS011;24692;45.642;13.806;2023-06-26T12:10:06;8.63;;;7.82;;
36443;SDS011;24692;45.642;13.806;2023-06-26T12:12:32;8.68;;;7.72;;
36443;SDS011;24692;45.642;13.806;2023-06-26T12:14:58;10.55;;;8.05;;
36443;SDS011;24692;45.642;13.806;2023-06-26T12:17:25;9.30;;;7.75;;
36443;SDS011;24692;45.642;13.806;2023-06-26T12:19:51;11.85;;;7.97;;
36443;SDS011;24692;45.642;13.806;2023-06-26T12:22:18;8.15;;;7.30;;
36443;SDS011;24692;45.642;13.806;2023-06-26T12:24:44;9.52;;;7.55;;
36443;SDS011;24692;45.642;13.806;2023-06-26T12:27:12;8.15;;;7.35;;
36443;SDS011;24692;45.642;13.806;2023-06-26T12:29:39;8.30;;;7.47;;
36443;SDS011;24692;45.642;13.806;2023-06-26T12:32:10;8.80;;;7.25;;
36443;SDS011;24692;45.642;13.806;2023-06-26T12:34:36;8.50;;;7.45;;
36443;SDS011;24692;45.642;13.806;2023-06-26T12:37:10;8.43;;;7.72;;
36443;SDS011;24692;45.642;13.806;2023-06-26T12:42:18;8.70;;;7.90;;
36443;SDS011;24692;45.642;13.806;2023-06-26T12:44:44;10.98;;;8.20;;
36443;SDS011;24692;45.642;13.806;2023-06-26T12:47:10;9.15;;;7.65;;
36443;SDS011;24692;45.642;13.806;2023-06-26T12:49:42;8.77;;;7.88;;
36443;SDS011;24692;45.642;13.806;2023-06-26T12:52:10;8.20;;;7.30;;
36443;SDS011;24692;45.642;13.806;2023-06-26T12:54:41;8.55;;;7.80;;
36443;SDS011;24692;45.642;13.806;2023-06-26T12:57:08;10.45;;;7.90;;
36443;SDS011;24692;45.642;13.806;2023-06-26T12:59:35;9.02;;;7.82;;
36443;SDS011;24692;45.642;13.806;2023-06-26T13:02:02;10.98;;;7.88;;
36443;SDS011;24692;45.642;13.806;2023-06-26T13:04:28;9.20;;;7.18;;
36443;SDS011;24692;45.642;13.806;2023-06-26T13:06:54;8.23;;;7.40;;
36443;SDS011;24692;45.642;13.806;2023-06-26T13:09:20;8.88;;;7.47;;
36443;SDS011;24692;45.642;13.806;2023-06-26T13:11:47;9.20;;;7.22;;
36443;SDS011;24692;45.642;13.806;2023-06-26T13:14:13;9.77;;;7.10;;
36443;SDS011;24692;45.642;13.806;2023-06-26T13:16:39;9.00;;;7.30;;
36443;SDS011;24692;45.642;13.806;2023-06-26T13:19:05;10.15;;;7.28;;
36443;SDS011;24692;45.642;13.806;2023-06-26T13:21:31;9.70;;;7.43;;
36443;SDS011;24692;45.642;13.806;2023-06-26T13:23:56;10.43;;;7.30;;
36443;SDS011;24692;45.642;13.806;2023-06-26T13:26:23;8.60;;;7.70;;
36443;SDS011;24692;45.642;13.806;2023-06-26T13:28:49;10.18;;;7.57;;
36443;SDS011;24692;45.642;13.806;2023-06-26T13:31:15;8.07;;;7.10;;
36443;SDS011;24692;45.642;13.806;2023-06-26T13:33:41;8.70;;;7.28;;
36443;SDS011;24692;45.642;13.806;2023-06-26T13:36:06;7.88;;;7.07;;
36443;SDS011;24692;45.642;13.806;2023-06-26T13:38:35;9.75;;;7.40;;
36443;SDS011;24692;45.642;13.806;2023-06-26T13:41:01;8.13;;;7.32;;
36443;SDS011;24692;45.642;13.806;2023-06-26T13:43:27;8.00;;;6.90;;
36443;SDS011;24692;45.642;13.806;2023-06-26T13:45:54;7.43;;;6.47;;
36443;SDS011;24692;45.642;13.806;2023-06-26T13:48:20;8.05;;;7.20;;
36443;SDS011;24692;45.642;13.806;2023-06-26T13:50:49;8.25;;;7.18;;
36443;SDS011;24692;45.642;13.806;2023-06-26T13:53:15;11.00;;;7.22;;
36443;SDS011;24692;45.642;13.806;2023-06-26T13:55:40;7.45;;;6.47;;
36443;SDS011;24692;45.642;13.806;2023-06-26T13:58:07;8.68;;;7.32;;
36443;SDS011;24692;45.642;13.806;2023-06-26T14:00:33;9.32;;;7.57;;
36443;SDS011;24692;45.642;13.806;2023-06-26T14:03:00;8.25;;;7.07;;
36443;SDS011;24692;45.642;13.806;2023-06-26T14:05:26;8.50;;;7.13;;
36443;SDS011;24692;45.642;13.806;2023-06-26T14:07:52;8.68;;;7.30;;
36443;SDS011;24692;45.642;13.806;2023-06-26T14:10:19;10.02;;;7.60;;
36443;SDS011;24692;45.642;13.806;2023-06-26T14:12:45;8.82;;;7.57;;
36443;SDS011;24692;45.642;13.806;2023-06-26T14:15:11;8.30;;;7.50;;
36443;SDS011;24692;45.642;13.806;2023-06-26T14:17:37;8.68;;;7.28;;
36443;SDS011;24692;45.642;13.806;2023-06-26T14:20:05;8.85;;;7.63;;
36443;SDS011;24692;45.642;13.806;2023-06-26T14:22:35;8.63;;;7.38;;
36443;SDS011;24692;45.642;13.806;2023-06-26T14:25:01;9.63;;;6.93;;
36443;SDS011;24692;45.642;13.806;2023-06-26T14:27:27;7.97;;;7.18;;
36443;SDS011;24692;45.642;13.806;2023-06-26T14:29:53;8.75;;;7.45;;
36443;SDS011;24692;45.642;13.806;2023-06-26T14:32:19;10.75;;;7.70;;
36443;SDS011;24692;45.642;13.806;2023-06-26T14:34:44;8.32;;;7.53;;
36443;SDS011;24692;45.642;13.806;2023-06-26T14:37:10;8.85;;;6.85;;
36443;SDS011;24692;45.642;13.806;2023-06-26T14:39:35;8.13;;;7.30;;
36443;SDS011;24692;45.642;13.806;2023-06-26T14:42:03;7.88;;;6.82;;
36443;SDS011;24692;45.642;13.806;2023-06-26T14:44:30;8.82;;;7.35;;